sensor_id;sensor_type;location;lat;lon;timestamp;P1;durP1;ratioP1;P2;durP2;ratioP2
66761;SDS011;53672;48.176;16.338;2023-09-07T00:00:25;8.93;;;5.13;;
66761;SDS011;53672;48.176;16.338;2023-09-07T00:05:26;9.68;;;5.55;;
66761;SDS011;53672;48.176;16.338;2023-09-07T00:10:27;11.67;;;5.90;;
66761;SDS011;53672;48.176;16.338;2023-09-07T00:15:29;9.90;;;5.40;;
66761;SDS011;53672;48.176;16.338;2023-09-07T00:20:30;10.48;;;5.65;;
66761;SDS011;53672;48.176;16.338;2023-09-07T00:25:30;9.47;;;5.83;;
66761;SDS011;53672;48.176;16.338;2023-09-07T00:30:32;12.50;;;6.23;;
66761;SDS011;53672;48.176;16.338;2023-09-07T00:35:32;8.80;;;5.63;;
66761;SDS011;53672;48.176;16.338;2023-09-07T00:40:33;12.35;;;6.20;;
66761;SDS011;53672;48.176;16.338;2023-09-07T00:45:36;10.48;;;5.80;;
66761;SDS011;53672;48.176;16.338;2023-09-07T00:50:37;12.82;;;5.85;;
66761;SDS011;53672;48.176;16.338;2023-09-07T00:55:38;10.35;;;5.80;;
66761;SDS011;53672;48.176;16.338;2023-09-07T01:00:40;9.13;;;5.47;;
66761;SDS011;53672;48.176;16.338;2023-09-07T01:05:42;10.88;;;5.43;;
66761;SDS011;53672;48.176;16.338;2023-09-07T01:10:46;9.63;;;5.93;;
66761;SDS011;53672;48.176;16.338;2023-09-07T01:15:48;12.60;;;6.43;;
66761;SDS011;53672;48.176;16.338;2023-09-07T01:20:50;11.27;;;5.78;;
66761;SDS011;53672;48.176;16.338;2023-09-07T01:25:53;10.80;;;6.15;;
66761;SDS011;53672;48.176;16.338;2023-09-07T01:30:55;10.25;;;6.07;;
66761;SDS011;53672;48.176;16.338;2023-09-07T01:35:56;10.10;;;5.95;;
66761;SDS011;53672;48.176;16.338;2023-09-07T01:40:58;12.50;;;6.30;;
66761;SDS011;53672;48.176;16.338;2023-09-07T01:45:59;9.27;;;5.70;;
66761;SDS011;53672;48.176;16.338;2023-09-07T01:50:59;10.47;;;5.87;;
66761;SDS011;53672;48.176;16.338;2023-09-07T01:56:01;10.77;;;5.50;;
66761;SDS011;53672;48.176;16.338;2023-09-07T02:01:02;10.15;;;5.13;;
66761;SDS011;53672;48.176;16.338;2023-09-07T02:06:02;10.90;;;6.00;;
66761;SDS011;53672;48.176;16.338;2023-09-07T02:11:05;12.90;;;5.87;;
66761;SDS011;53672;48.176;16.338;2023-09-07T02:16:05;10.48;;;5.70;;
66761;SDS011;53672;48.176;16.338;2023-09-07T02:21:06;9.50;;;5.43;;
66761;SDS011;53672;48.176;16.338;2023-09-07T02:26:08;10.07;;;5.53;;
66761;SDS011;53672;48.176;16.338;2023-09-07T02:31:08;12.32;;;5.60;;
66761;SDS011;53672;48.176;16.338;2023-09-07T02:36:09;10.50;;;5.77;;
66761;SDS011;53672;48.176;16.338;2023-09-07T02:41:10;10.33;;;5.70;;
66761;SDS011;53672;48.176;16.338;2023-09-07T02:46:11;7.97;;;5.30;;
66761;SDS011;53672;48.176;16.338;2023-09-07T02:51:11;13.57;;;6.10;;
66761;SDS011;53672;48.176;16.338;2023-09-07T02:56:13;8.30;;;5.50;;
66761;SDS011;53672;48.176;16.338;2023-09-07T03:01:14;9.03;;;5.77;;
66761;SDS011;53672;48.176;16.338;2023-09-07T03:06:14;8.93;;;5.47;;
66761;SDS011;53672;48.176;16.338;2023-09-07T03:11:17;11.40;;;5.43;;
66761;SDS011;53672;48.176;16.338;2023-09-07T03:16:17;10.48;;;5.63;;
66761;SDS011;53672;48.176;16.338;2023-09-07T03:21:18;10.37;;;6.10;;
66761;SDS011;53672;48.176;16.338;2023-09-07T03:26:20;10.07;;;6.00;;
66761;SDS011;53672;48.176;16.338;2023-09-07T03:31:20;9.80;;;5.85;;
66761;SDS011;53672;48.176;16.338;2023-09-07T03:36:21;12.50;;;6.70;;
66761;SDS011;53672;48.176;16.338;2023-09-07T03:41:23;11.27;;;6.73;;
66761;SDS011;53672;48.176;16.338;2023-09-07T03:46:23;10.80;;;6.50;;
66761;SDS011;53672;48.176;16.338;2023-09-07T03:51:24;12.73;;;7.00;;
66761;SDS011;53672;48.176;16.338;2023-09-07T03:56:26;12.17;;;6.87;;
66761;SDS011;53672;48.176;16.338;2023-09-07T04:01:26;11.20;;;6.43;;
66761;SDS011;53672;48.176;16.338;2023-09-07T04:06:26;12.60;;;7.07;;
66761;SDS011;53672;48.176;16.338;2023-09-07T04:11:28;12.37;;;7.40;;
66761;SDS011;53672;48.176;16.338;2023-09-07T04:16:29;13.27;;;7.28;;
66761;SDS011;53672;48.176;16.338;2023-09-07T04:21:29;13.30;;;7.27;;
66761;SDS011;53672;48.176;16.338;2023-09-07T04:26:32;13.10;;;7.00;;
66761;SDS011;53672;48.176;16.338;2023-09-07T04:31:34;13.38;;;6.97;;
66761;SDS011;53672;48.176;16.338;2023-09-07T04:36:35;12.63;;;7.23;;
66761;SDS011;53672;48.176;16.338;2023-09-07T04:41:36;13.77;;;7.20;;
66761;SDS011;53672;48.176;16.338;2023-09-07T04:46:37;12.13;;;7.07;;
66761;SDS011;53672;48.176;16.338;2023-09-07T04:51:37;12.93;;;7.50;;
66761;SDS011;53672;48.176;16.338;2023-09-07T04:56:39;13.43;;;7.17;;
66761;SDS011;53672;48.176;16.338;2023-09-07T05:01:40;11.93;;;6.93;;
66761;SDS011;53672;48.176;16.338;2023-09-07T05:06:40;12.03;;;7.17;;
66761;SDS011;53672;48.176;16.338;2023-09-07T05:11:42;14.37;;;7.63;;
66761;SDS011;53672;48.176;16.338;2023-09-07T05:16:43;11.40;;;7.10;;
66761;SDS011;53672;48.176;16.338;2023-09-07T05:21:43;13.52;;;7.65;;
66761;SDS011;53672;48.176;16.338;2023-09-07T05:26:45;13.67;;;6.77;;
66761;SDS011;53672;48.176;16.338;2023-09-07T05:31:46;11.63;;;7.10;;
66761;SDS011;53672;48.176;16.338;2023-09-07T05:36:47;12.60;;;7.20;;
66761;SDS011;53672;48.176;16.338;2023-09-07T05:41:50;15.57;;;8.10;;
66761;SDS011;53672;48.176;16.338;2023-09-07T05:46:50;15.55;;;7.57;;
66761;SDS011;53672;48.176;16.338;2023-09-07T05:51:51;12.13;;;7.47;;
66761;SDS011;53672;48.176;16.338;2023-09-07T05:56:53;12.57;;;7.30;;
66761;SDS011;53672;48.176;16.338;2023-09-07T06:01:53;15.10;;;7.75;;
66761;SDS011;53672;48.176;16.338;2023-09-07T06:06:54;10.75;;;6.60;;
66761;SDS011;53672;48.176;16.338;2023-09-07T06:11:55;15.07;;;7.20;;
66761;SDS011;53672;48.176;16.338;2023-09-07T06:16:56;12.43;;;6.70;;
66761;SDS011;53672;48.176;16.338;2023-09-07T06:21:56;12.70;;;6.33;;
66761;SDS011;53672;48.176;16.338;2023-09-07T06:26:58;9.65;;;5.60;;
66761;SDS011;53672;48.176;16.338;2023-09-07T06:31:59;9.97;;;5.73;;
66761;SDS011;53672;48.176;16.338;2023-09-07T06:36:59;9.23;;;5.70;;
66761;SDS011;53672;48.176;16.338;2023-09-07T06:42:01;11.97;;;6.43;;
66761;SDS011;53672;48.176;16.338;2023-09-07T06:47:02;11.07;;;6.35;;
66761;SDS011;53672;48.176;16.338;2023-09-07T06:52:03;9.55;;;6.18;;
66761;SDS011;53672;48.176;16.338;2023-09-07T06:57:07;10.57;;;6.17;;
66761;SDS011;53672;48.176;16.338;2023-09-07T07:02:07;13.20;;;6.60;;
66761;SDS011;53672;48.176;16.338;2023-09-07T07:07:08;13.07;;;6.83;;
66761;SDS011;53672;48.176;16.338;2023-09-07T07:12:10;11.32;;;6.43;;
66761;SDS011;53672;48.176;16.338;2023-09-07T07:17:10;9.63;;;6.50;;
66761;SDS011;53672;48.176;16.338;2023-09-07T07:22:12;11.80;;;7.50;;
66761;SDS011;53672;48.176;16.338;2023-09-07T07:27:14;12.80;;;7.78;;
66761;SDS011;53672;48.176;16.338;2023-09-07T07:32:14;16.08;;;8.25;;
66761;SDS011;53672;48.176;16.338;2023-09-07T07:37:15;18.73;;;8.93;;
66761;SDS011;53672;48.176;16.338;2023-09-07T07:42:17;13.07;;;6.93;;
66761;SDS011;53672;48.176;16.338;2023-09-07T07:47:17;11.43;;;7.20;;
66761;SDS011;53672;48.176;16.338;2023-09-07T07:52:18;12.52;;;6.70;;
66761;SDS011;53672;48.176;16.338;2023-09-07T07:57:20;19.03;;;7.30;;
66761;SDS011;53672;48.176;16.338;2023-09-07T08:02:20;13.40;;;6.90;;
66761;SDS011;53672;48.176;16.338;2023-09-07T08:07:21;13.68;;;7.00;;
66761;SDS011;53672;48.176;16.338;2023-09-07T08:12:23;12.48;;;7.03;;
66761;SDS011;53672;48.176;16.338;2023-09-07T08:17:23;11.10;;;6.13;;
66761;SDS011;53672;48.176;16.338;2023-09-07T08:22:24;12.07;;;5.15;;
66761;SDS011;53672;48.176;16.338;2023-09-07T08:27:26;9.90;;;4.80;;
66761;SDS011;53672;48.176;16.338;2023-09-07T08:32:27;10.32;;;5.13;;
66761;SDS011;53672;48.176;16.338;2023-09-07T08:37:27;6.87;;;4.50;;
66761;SDS011;53672;48.176;16.338;2023-09-07T08:42:29;8.67;;;4.90;;
66761;SDS011;53672;48.176;16.338;2023-09-07T08:47:30;8.02;;;5.00;;
66761;SDS011;53672;48.176;16.338;2023-09-07T08:52:31;7.87;;;4.83;;
66761;SDS011;53672;48.176;16.338;2023-09-07T08:57:33;9.60;;;4.82;;
66761;SDS011;53672;48.176;16.338;2023-09-07T09:02:34;9.55;;;4.80;;
66761;SDS011;53672;48.176;16.338;2023-09-07T09:07:34;8.73;;;4.80;;
66761;SDS011;53672;48.176;16.338;2023-09-07T09:12:36;8.43;;;4.87;;
66761;SDS011;53672;48.176;16.338;2023-09-07T09:17:45;9.40;;;4.45;;
66761;SDS011;53672;48.176;16.338;2023-09-07T09:22:45;7.20;;;4.33;;
66761;SDS011;53672;48.176;16.338;2023-09-07T09:27:47;7.47;;;4.57;;
66761;SDS011;53672;48.176;16.338;2023-09-07T09:32:48;7.43;;;4.53;;
66761;SDS011;53672;48.176;16.338;2023-09-07T09:37:48;8.87;;;4.33;;
66761;SDS011;53672;48.176;16.338;2023-09-07T09:42:50;8.27;;;4.70;;
66761;SDS011;53672;48.176;16.338;2023-09-07T09:47:54;8.98;;;4.47;;
66761;SDS011;53672;48.176;16.338;2023-09-07T09:52:55;6.27;;;4.00;;
66761;SDS011;53672;48.176;16.338;2023-09-07T09:57:58;8.00;;;4.40;;
66761;SDS011;53672;48.176;16.338;2023-09-07T10:03:00;10.47;;;6.03;;
66761;SDS011;53672;48.176;16.338;2023-09-07T10:08:08;8.75;;;4.20;;
66761;SDS011;53672;48.176;16.338;2023-09-07T10:13:12;7.20;;;4.35;;
66761;SDS011;53672;48.176;16.338;2023-09-07T10:18:14;8.13;;;4.45;;
66761;SDS011;53672;48.176;16.338;2023-09-07T10:23:15;6.18;;;4.22;;
66761;SDS011;53672;48.176;16.338;2023-09-07T10:28:21;7.87;;;4.00;;
66761;SDS011;53672;48.176;16.338;2023-09-07T10:33:22;6.87;;;3.90;;
66761;SDS011;53672;48.176;16.338;2023-09-07T10:38:23;6.22;;;4.18;;
66761;SDS011;53672;48.176;16.338;2023-09-07T10:43:26;7.50;;;4.17;;
66761;SDS011;53672;48.176;16.338;2023-09-07T10:48:28;7.72;;;3.80;;
66761;SDS011;53672;48.176;16.338;2023-09-07T10:53:30;6.37;;;3.60;;
66761;SDS011;53672;48.176;16.338;2023-09-07T10:58:33;7.72;;;3.70;;
66761;SDS011;53672;48.176;16.338;2023-09-07T11:03:35;5.20;;;3.60;;
66761;SDS011;53672;48.176;16.338;2023-09-07T11:08:37;13.55;;;3.90;;
66761;SDS011;53672;48.176;16.338;2023-09-07T11:13:38;6.83;;;3.93;;
66761;SDS011;53672;48.176;16.338;2023-09-07T11:18:39;6.80;;;3.70;;
66761;SDS011;53672;48.176;16.338;2023-09-07T11:23:40;7.40;;;3.90;;
66761;SDS011;53672;48.176;16.338;2023-09-07T11:28:42;5.57;;;3.20;;
66761;SDS011;53672;48.176;16.338;2023-09-07T11:33:44;5.65;;;3.60;;
66761;SDS011;53672;48.176;16.338;2023-09-07T11:38:46;6.03;;;3.70;;
66761;SDS011;53672;48.176;16.338;2023-09-07T11:43:48;7.40;;;3.90;;
66761;SDS011;53672;48.176;16.338;2023-09-07T11:48:49;8.25;;;4.00;;
66761;SDS011;53672;48.176;16.338;2023-09-07T11:53:49;6.03;;;4.30;;
66761;SDS011;53672;48.176;16.338;2023-09-07T11:58:51;6.30;;;4.03;;
66761;SDS011;53672;48.176;16.338;2023-09-07T12:03:52;6.80;;;3.63;;
66761;SDS011;53672;48.176;16.338;2023-09-07T12:08:58;6.33;;;4.07;;
66761;SDS011;53672;48.176;16.338;2023-09-07T12:14:00;6.50;;;4.18;;
66761;SDS011;53672;48.176;16.338;2023-09-07T12:19:01;6.72;;;4.10;;
66761;SDS011;53672;48.176;16.338;2023-09-07T12:24:01;7.20;;;3.90;;
66761;SDS011;53672;48.176;16.338;2023-09-07T12:29:03;6.10;;;4.00;;
66761;SDS011;53672;48.176;16.338;2023-09-07T12:34:04;7.03;;;3.80;;
66761;SDS011;53672;48.176;16.338;2023-09-07T12:39:04;8.20;;;4.10;;
66761;SDS011;53672;48.176;16.338;2023-09-07T12:44:06;6.50;;;3.87;;
66761;SDS011;53672;48.176;16.338;2023-09-07T12:49:07;6.13;;;4.13;;
66761;SDS011;53672;48.176;16.338;2023-09-07T12:54:07;5.73;;;3.73;;
66761;SDS011;53672;48.176;16.338;2023-09-07T12:59:09;17.60;;;4.20;;
66761;SDS011;53672;48.176;16.338;2023-09-07T13:04:10;5.95;;;3.58;;
66761;SDS011;53672;48.176;16.338;2023-09-07T13:09:10;8.63;;;4.20;;
66761;SDS011;53672;48.176;16.338;2023-09-07T13:14:12;6.37;;;3.87;;
66761;SDS011;53672;48.176;16.338;2023-09-07T13:19:12;7.97;;;4.00;;
66761;SDS011;53672;48.176;16.338;2023-09-07T13:24:13;8.57;;;4.10;;
66761;SDS011;53672;48.176;16.338;2023-09-07T13:29:15;6.37;;;4.00;;
66761;SDS011;53672;48.176;16.338;2023-09-07T13:34:15;7.43;;;3.97;;
66761;SDS011;53672;48.176;16.338;2023-09-07T13:39:16;7.03;;;4.00;;
66761;SDS011;53672;48.176;16.338;2023-09-07T13:44:18;6.23;;;3.93;;
66761;SDS011;53672;48.176;16.338;2023-09-07T13:49:18;9.63;;;4.10;;
66761;SDS011;53672;48.176;16.338;2023-09-07T13:54:19;8.33;;;4.37;;
66761;SDS011;53672;48.176;16.338;2023-09-07T13:59:21;6.78;;;4.10;;
66761;SDS011;53672;48.176;16.338;2023-09-07T14:04:21;6.93;;;3.83;;
66761;SDS011;53672;48.176;16.338;2023-09-07T14:09:22;6.97;;;3.80;;
66761;SDS011;53672;48.176;16.338;2023-09-07T14:14:24;8.77;;;4.27;;
66761;SDS011;53672;48.176;16.338;2023-09-07T14:19:24;7.13;;;3.88;;
66761;SDS011;53672;48.176;16.338;2023-09-07T14:24:25;9.90;;;3.83;;
66761;SDS011;53672;48.176;16.338;2023-09-07T14:29:27;7.47;;;4.18;;
66761;SDS011;53672;48.176;16.338;2023-09-07T14:34:27;6.60;;;4.03;;
66761;SDS011;53672;48.176;16.338;2023-09-07T14:39:28;7.57;;;4.13;;
66761;SDS011;53672;48.176;16.338;2023-09-07T14:44:30;10.30;;;4.27;;
66761;SDS011;53672;48.176;16.338;2023-09-07T14:49:30;8.30;;;4.18;;
66761;SDS011;53672;48.176;16.338;2023-09-07T14:54:31;7.10;;;3.67;;
66761;SDS011;53672;48.176;16.338;2023-09-07T14:59:33;8.87;;;4.20;;
66761;SDS011;53672;48.176;16.338;2023-09-07T15:04:34;7.50;;;4.13;;
66761;SDS011;53672;48.176;16.338;2023-09-07T15:09:35;7.63;;;4.00;;
66761;SDS011;53672;48.176;16.338;2023-09-07T15:14:37;6.85;;;3.85;;
66761;SDS011;53672;48.176;16.338;2023-09-07T15:19:39;7.88;;;4.10;;
66761;SDS011;53672;48.176;16.338;2023-09-07T15:24:40;8.20;;;3.85;;
66761;SDS011;53672;48.176;16.338;2023-09-07T15:29:42;8.15;;;4.15;;
66761;SDS011;53672;48.176;16.338;2023-09-07T15:34:43;6.90;;;4.00;;
66761;SDS011;53672;48.176;16.338;2023-09-07T15:39:43;7.93;;;3.70;;
66761;SDS011;53672;48.176;16.338;2023-09-07T15:44:45;7.82;;;4.18;;
66761;SDS011;53672;48.176;16.338;2023-09-07T15:49:48;7.45;;;4.10;;
66761;SDS011;53672;48.176;16.338;2023-09-07T15:54:51;6.13;;;3.57;;
66761;SDS011;53672;48.176;16.338;2023-09-07T15:59:54;6.72;;;4.03;;
66761;SDS011;53672;48.176;16.338;2023-09-07T16:04:55;6.20;;;3.70;;
66761;SDS011;53672;48.176;16.338;2023-09-07T16:09:58;11.60;;;6.25;;
66761;SDS011;53672;48.176;16.338;2023-09-07T16:15:00;10.38;;;5.85;;
66761;SDS011;53672;48.176;16.338;2023-09-07T16:20:02;8.80;;;4.40;;
66761;SDS011;53672;48.176;16.338;2023-09-07T16:25:04;7.80;;;3.80;;
66761;SDS011;53672;48.176;16.338;2023-09-07T16:30:07;7.57;;;3.60;;
66761;SDS011;53672;48.176;16.338;2023-09-07T16:35:09;6.95;;;4.03;;
66761;SDS011;53672;48.176;16.338;2023-09-07T16:40:10;6.40;;;3.70;;
66761;SDS011;53672;48.176;16.338;2023-09-07T16:45:14;7.10;;;4.00;;
66761;SDS011;53672;48.176;16.338;2023-09-07T16:50:14;9.40;;;4.20;;
66761;SDS011;53672;48.176;16.338;2023-09-07T16:55:15;8.33;;;4.03;;
66761;SDS011;53672;48.176;16.338;2023-09-07T17:00:18;8.02;;;3.83;;
66761;SDS011;53672;48.176;16.338;2023-09-07T17:05:18;7.78;;;3.85;;
66761;SDS011;53672;48.176;16.338;2023-09-07T17:10:19;7.07;;;3.63;;
66761;SDS011;53672;48.176;16.338;2023-09-07T17:15:22;8.37;;;4.00;;
66761;SDS011;53672;48.176;16.338;2023-09-07T17:20:23;7.55;;;3.78;;
66761;SDS011;53672;48.176;16.338;2023-09-07T17:25:24;7.82;;;4.10;;
66761;SDS011;53672;48.176;16.338;2023-09-07T17:30:26;7.50;;;4.22;;
66761;SDS011;53672;48.176;16.338;2023-09-07T17:35:28;9.40;;;4.20;;
66761;SDS011;53672;48.176;16.338;2023-09-07T17:40:30;8.33;;;4.47;;
66761;SDS011;53672;48.176;16.338;2023-09-07T17:45:33;9.48;;;4.38;;
66761;SDS011;53672;48.176;16.338;2023-09-07T17:50:33;6.78;;;4.00;;
66761;SDS011;53672;48.176;16.338;2023-09-07T17:55:34;8.30;;;4.15;;
66761;SDS011;53672;48.176;16.338;2023-09-07T18:00:39;7.97;;;3.78;;
66761;SDS011;53672;48.176;16.338;2023-09-07T18:05:40;8.60;;;3.97;;
66761;SDS011;53672;48.176;16.338;2023-09-07T18:10:42;9.30;;;3.92;;
66761;SDS011;53672;48.176;16.338;2023-09-07T18:15:45;8.50;;;4.13;;
66761;SDS011;53672;48.176;16.338;2023-09-07T18:20:48;8.85;;;4.22;;
66761;SDS011;53672;48.176;16.338;2023-09-07T18:25:50;9.93;;;4.37;;
66761;SDS011;53672;48.176;16.338;2023-09-07T18:30:53;8.15;;;4.60;;
66761;SDS011;53672;48.176;16.338;2023-09-07T18:36:01;9.97;;;4.60;;
66761;SDS011;53672;48.176;16.338;2023-09-07T18:41:02;8.85;;;4.40;;
66761;SDS011;53672;48.176;16.338;2023-09-07T18:46:04;9.40;;;4.43;;
66761;SDS011;53672;48.176;16.338;2023-09-07T18:51:07;8.50;;;4.10;;
66761;SDS011;53672;48.176;16.338;2023-09-07T18:56:09;14.05;;;4.75;;
66761;SDS011;53672;48.176;16.338;2023-09-07T19:01:12;8.93;;;4.40;;
66761;SDS011;53672;48.176;16.338;2023-09-07T19:06:14;8.63;;;4.72;;
66761;SDS011;53672;48.176;16.338;2023-09-07T19:11:15;12.33;;;4.53;;
66761;SDS011;53672;48.176;16.338;2023-09-07T19:16:17;10.95;;;4.65;;
66761;SDS011;53672;48.176;16.338;2023-09-07T19:21:19;12.33;;;4.43;;
66761;SDS011;53672;48.176;16.338;2023-09-07T19:26:32;11.07;;;5.00;;
66761;SDS011;53672;48.176;16.338;2023-09-07T19:31:36;8.73;;;4.70;;
66761;SDS011;53672;48.176;16.338;2023-09-07T19:36:39;10.13;;;5.00;;
66761;SDS011;53672;48.176;16.338;2023-09-07T19:41:40;10.98;;;5.32;;
66761;SDS011;53672;48.176;16.338;2023-09-07T19:46:43;9.43;;;5.10;;
66761;SDS011;53672;48.176;16.338;2023-09-07T19:51:45;14.63;;;6.18;;
66761;SDS011;53672;48.176;16.338;2023-09-07T19:56:46;17.40;;;5.75;;
66761;SDS011;53672;48.176;16.338;2023-09-07T20:01:52;12.60;;;5.72;;
66761;SDS011;53672;48.176;16.338;2023-09-07T20:06:54;12.15;;;5.55;;
66761;SDS011;53672;48.176;16.338;2023-09-07T20:11:55;16.07;;;7.93;;
66761;SDS011;53672;48.176;16.338;2023-09-07T20:17:01;14.87;;;7.90;;
66761;SDS011;53672;48.176;16.338;2023-09-07T20:22:04;15.00;;;7.55;;
66761;SDS011;53672;48.176;16.338;2023-09-07T20:27:05;13.57;;;6.97;;
66761;SDS011;53672;48.176;16.338;2023-09-07T20:32:08;12.10;;;6.90;;
66761;SDS011;53672;48.176;16.338;2023-09-07T20:37:10;10.88;;;6.22;;
66761;SDS011;53672;48.176;16.338;2023-09-07T20:42:12;11.77;;;6.83;;
66761;SDS011;53672;48.176;16.338;2023-09-07T20:47:14;11.55;;;6.28;;
66761;SDS011;53672;48.176;16.338;2023-09-07T20:52:15;10.60;;;6.03;;
66761;SDS011;53672;48.176;16.338;2023-09-07T20:57:17;12.20;;;6.37;;
66761;SDS011;53672;48.176;16.338;2023-09-07T21:02:19;12.98;;;6.50;;
66761;SDS011;53672;48.176;16.338;2023-09-07T21:07:19;10.83;;;5.93;;
66761;SDS011;53672;48.176;16.338;2023-09-07T21:12:20;11.67;;;6.23;;
66761;SDS011;53672;48.176;16.338;2023-09-07T21:17:22;12.05;;;6.43;;
66761;SDS011;53672;48.176;16.338;2023-09-07T21:22:22;11.23;;;6.07;;
66761;SDS011;53672;48.176;16.338;2023-09-07T21:27:23;10.33;;;6.17;;
66761;SDS011;53672;48.176;16.338;2023-09-07T21:32:25;10.32;;;5.60;;
66761;SDS011;53672;48.176;16.338;2023-09-07T21:37:26;9.02;;;5.35;;
66761;SDS011;53672;48.176;16.338;2023-09-07T21:42:27;10.32;;;5.75;;
66761;SDS011;53672;48.176;16.338;2023-09-07T21:47:28;9.03;;;5.70;;
66761;SDS011;53672;48.176;16.338;2023-09-07T21:52:29;8.60;;;5.47;;
66761;SDS011;53672;48.176;16.338;2023-09-07T21:57:29;8.50;;;5.20;;
66761;SDS011;53672;48.176;16.338;2023-09-07T22:02:31;8.60;;;4.65;;
66761;SDS011;53672;48.176;16.338;2023-09-07T22:07:32;9.25;;;5.30;;
66761;SDS011;53672;48.176;16.338;2023-09-07T22:12:32;10.37;;;5.30;;
66761;SDS011;53672;48.176;16.338;2023-09-07T22:17:34;10.33;;;5.40;;
66761;SDS011;53672;48.176;16.338;2023-09-07T22:22:35;11.73;;;5.93;;
66761;SDS011;53672;48.176;16.338;2023-09-07T22:27:35;11.17;;;5.83;;
66761;SDS011;53672;48.176;16.338;2023-09-07T22:32:37;10.80;;;5.80;;
66761;SDS011;53672;48.176;16.338;2023-09-07T22:37:38;10.05;;;5.53;;
66761;SDS011;53672;48.176;16.338;2023-09-07T22:42:38;10.27;;;5.43;;
66761;SDS011;53672;48.176;16.338;2023-09-07T22:47:40;10.93;;;5.57;;
66761;SDS011;53672;48.176;16.338;2023-09-07T22:52:40;9.45;;;5.75;;
66761;SDS011;53672;48.176;16.338;2023-09-07T22:57:41;9.95;;;5.68;;
66761;SDS011;53672;48.176;16.338;2023-09-07T23:02:43;9.77;;;5.70;;
66761;SDS011;53672;48.176;16.338;2023-09-07T23:07:43;11.83;;;5.60;;
66761;SDS011;53672;48.176;16.338;2023-09-07T23:12:44;9.70;;;5.83;;
66761;SDS011;53672;48.176;16.338;2023-09-07T23:17:45;9.13;;;5.70;;
66761;SDS011;53672;48.176;16.338;2023-09-07T23:22:46;10.70;;;5.90;;
66761;SDS011;53672;48.176;16.338;2023-09-07T23:27:47;11.82;;;6.05;;
66761;SDS011;53672;48.176;16.338;2023-09-07T23:32:49;11.00;;;5.97;;
66761;SDS011;53672;48.176;16.338;2023-09-07T23:37:49;13.60;;;6.60;;
66761;SDS011;53672;48.176;16.338;2023-09-07T23:42:50;11.57;;;6.17;;
66761;SDS011;53672;48.176;16.338;2023-09-07T23:47:52;12.45;;;6.30;;
66761;SDS011;53672;48.176;16.338;2023-09-07T23:52:52;12.98;;;6.70;;
66761;SDS011;53672;48.176;16.338;2023-09-07T23:57:52;15.10;;;6.97;;
